createdAt,value
2023-11-24T00:01:52.813Z,3.79
2023-11-24T00:04:19.674Z,3.82
2023-11-24T00:06:46.487Z,3.86
2023-11-24T00:09:13.227Z,3.89
2023-11-24T00:11:40.151Z,3.86
2023-11-24T00:14:07.017Z,4.05
2023-11-24T00:16:33.832Z,4.13
2023-11-24T00:19:00.621Z,4.11
2023-11-24T00:21:27.386Z,3.99
2023-11-24T00:23:54.146Z,3.97
2023-11-24T00:26:22.277Z,3.88
2023-11-24T00:28:49.176Z,3.89
2023-11-24T00:31:16.376Z,3.98
2023-11-24T00:33:43.362Z,3.87
2023-11-24T00:36:12.219Z,4.06
2023-11-24T00:38:38.991Z,4.04
2023-11-24T00:41:09.520Z,3.93
2023-11-24T00:43:39.955Z,3.84
2023-11-24T00:46:07.506Z,3.84
2023-11-24T00:48:35.030Z,3.82
2023-11-24T00:51:01.769Z,3.85
2023-11-24T00:53:28.549Z,3.74
2023-11-24T00:55:55.304Z,3.77
2023-11-24T00:58:22.060Z,3.81
2023-11-24T01:00:49.176Z,3.90
2023-11-24T01:03:16.715Z,3.92
2023-11-24T01:05:43.418Z,3.93
2023-11-24T01:08:10.119Z,4.07
2023-11-24T01:10:36.815Z,3.88
2023-11-24T01:13:03.856Z,4.06
2023-11-24T01:15:30.652Z,4.15
2023-11-24T01:17:58.525Z,4.14
2023-11-24T01:20:26.382Z,4.20
2023-11-24T01:22:53.166Z,4.18
2023-11-24T01:25:19.998Z,4.28
2023-11-24T01:27:47.270Z,4.43
2023-11-24T01:30:14.186Z,4.53
2023-11-24T01:32:40.920Z,4.67
2023-11-24T01:35:08.180Z,4.70
2023-11-24T01:37:35.157Z,4.75
2023-11-24T01:40:02.113Z,4.76
2023-11-24T01:42:28.837Z,4.83
2023-11-24T01:44:55.656Z,4.81
2023-11-24T01:47:22.562Z,4.87
2023-11-24T01:49:50.831Z,4.93
2023-11-24T01:52:17.717Z,4.85
2023-11-24T01:54:46.862Z,4.83
2023-11-24T01:57:14.093Z,4.77
2023-11-24T01:59:40.943Z,4.91
2023-11-24T02:02:07.770Z,4.93
2023-11-24T02:04:34.605Z,4.89
2023-11-24T02:07:03.555Z,4.94
2023-11-24T02:09:31.446Z,4.88
2023-11-24T02:11:58.342Z,4.86
2023-11-24T02:14:25.158Z,4.86
2023-11-24T02:16:51.897Z,4.80
2023-11-24T02:19:18.664Z,4.97
2023-11-24T02:21:46.448Z,4.86
2023-11-24T02:24:15.044Z,4.91
2023-11-24T02:26:41.736Z,4.95
2023-11-24T02:29:09.716Z,4.88
2023-11-24T02:31:36.623Z,4.93
2023-11-24T02:34:03.892Z,4.86
2023-11-24T02:36:32.116Z,4.75
2023-11-24T02:38:58.821Z,4.85
2023-11-24T02:41:26.707Z,4.95
2023-11-24T02:43:53.366Z,5.02
2023-11-24T02:46:20.052Z,4.90
2023-11-24T02:48:48.328Z,4.93
2023-11-24T02:51:15.903Z,4.88
2023-11-24T02:53:43.684Z,4.88
2023-11-24T02:56:10.378Z,4.98
2023-11-24T02:58:38.048Z,4.96
2023-11-24T03:01:06.805Z,4.88
2023-11-24T03:03:34.057Z,4.74
2023-11-24T03:06:07.916Z,4.87
2023-11-24T03:08:35.320Z,4.79
2023-11-24T03:11:07.013Z,4.68
2023-11-24T03:13:35.402Z,4.64
2023-11-24T03:16:04.789Z,4.55
2023-11-24T03:18:31.684Z,4.55
2023-11-24T03:20:58.586Z,4.42
2023-11-24T03:23:25.346Z,4.50
2023-11-24T03:25:52.102Z,4.46
2023-11-24T03:28:19.864Z,4.40
2023-11-24T03:30:47.646Z,4.44
2023-11-24T03:33:17.372Z,4.39
2023-11-24T03:35:44.135Z,4.41
2023-11-24T03:38:10.887Z,4.45
2023-11-24T03:40:37.707Z,4.44
2023-11-24T03:43:04.513Z,4.37
2023-11-24T03:45:31.463Z,4.23
2023-11-24T03:47:58.371Z,4.36
2023-11-24T03:50:25.229Z,4.42
2023-11-24T03:52:52.069Z,4.57
2023-11-24T03:55:18.774Z,4.60
2023-11-24T03:57:47.193Z,4.62
2023-11-24T04:00:15.022Z,4.57
2023-11-24T04:02:42.936Z,4.60
2023-11-24T04:05:13.235Z,4.63
2023-11-24T04:07:40.586Z,4.65
2023-11-24T04:10:08.458Z,4.73
2023-11-24T04:12:35.390Z,4.78
2023-11-24T04:15:02.484Z,4.80
2023-11-24T04:17:29.201Z,4.83
2023-11-24T04:19:55.921Z,4.89
2023-11-24T04:22:22.636Z,4.95
2023-11-24T04:24:49.387Z,4.95
2023-11-24T04:27:16.087Z,4.97
2023-11-24T04:29:42.801Z,5.06
2023-11-24T04:32:10.766Z,5.10
2023-11-24T04:34:37.763Z,5.14
2023-11-24T04:37:04.873Z,5.07
2023-11-24T04:39:31.711Z,5.07
2023-11-24T04:41:58.433Z,4.98
2023-11-24T04:44:25.125Z,5.04
2023-11-24T04:46:51.890Z,4.93
2023-11-24T04:49:18.980Z,4.86
2023-11-24T04:51:46.830Z,4.88
2023-11-24T04:54:13.681Z,4.96
2023-11-24T04:56:40.525Z,4.93
2023-11-24T04:59:07.345Z,4.96
2023-11-24T05:01:34.099Z,4.90
2023-11-24T05:04:01.508Z,4.89
2023-11-24T05:06:28.345Z,4.89
2023-11-24T05:08:55.118Z,4.90
2023-11-24T05:11:22.603Z,4.91
2023-11-24T05:13:50.466Z,4.84
2023-11-24T05:16:17.977Z,4.87
2023-11-24T05:18:44.894Z,4.91
2023-11-24T05:21:11.680Z,4.96
2023-11-24T05:23:38.827Z,4.97
2023-11-24T05:26:05.925Z,4.91
2023-11-24T05:28:34.262Z,5.00
2023-11-24T05:31:01.090Z,4.96
2023-11-24T05:33:27.868Z,4.97
2023-11-24T05:35:54.499Z,5.03
2023-11-24T05:38:21.239Z,5.03
2023-11-24T05:40:48.005Z,5.07
2023-11-24T05:43:15.203Z,5.12
2023-11-24T05:45:41.998Z,5.10
2023-11-24T05:48:08.790Z,5.02
2023-11-24T05:50:35.811Z,4.94
2023-11-24T05:53:02.477Z,4.99
2023-11-24T05:55:29.129Z,5.04
2023-11-24T05:57:57.794Z,5.04
2023-11-24T06:00:24.620Z,4.99
2023-11-24T06:02:51.756Z,5.03
2023-11-24T06:05:18.519Z,5.11
2023-11-24T06:07:46.021Z,5.13
2023-11-24T06:10:13.646Z,5.23
2023-11-24T06:12:40.558Z,5.19
2023-11-24T06:15:09.713Z,5.22
2023-11-24T06:17:36.636Z,5.25
2023-11-24T06:20:05.039Z,5.02
2023-11-24T06:22:31.794Z,5.06
2023-11-24T06:24:58.579Z,5.04
2023-11-24T06:27:25.360Z,4.94
2023-11-24T06:29:52.008Z,5.13
2023-11-24T06:32:18.653Z,5.17
2023-11-24T06:34:45.343Z,5.16
2023-11-24T06:37:12.091Z,5.19
2023-11-24T06:39:39.742Z,5.07
2023-11-24T06:42:06.689Z,4.97
2023-11-24T06:44:33.985Z,4.99
2023-11-24T06:47:02.231Z,4.96
2023-11-24T06:49:30.854Z,5.09
2023-11-24T06:51:58.153Z,4.89
2023-11-24T06:54:25.010Z,4.95
2023-11-24T06:56:51.840Z,4.98
2023-11-24T06:59:18.752Z,5.09
2023-11-24T07:01:45.774Z,5.02
2023-11-24T07:04:12.774Z,5.05
2023-11-24T07:06:40.524Z,5.09
2023-11-24T07:09:09.136Z,5.13
2023-11-24T07:11:37.662Z,5.20
2023-11-24T07:14:04.647Z,5.29
2023-11-24T07:16:31.731Z,5.20
2023-11-24T07:18:59.418Z,5.25
2023-11-24T07:21:26.647Z,5.18
2023-11-24T07:23:53.342Z,5.26
2023-11-24T07:26:20.610Z,5.27
2023-11-24T07:28:47.311Z,5.28
2023-11-24T07:31:16.210Z,5.38
2023-11-24T07:33:43.013Z,5.63
2023-11-24T07:36:10.345Z,5.69
2023-11-24T07:38:37.390Z,5.53
2023-11-24T07:41:05.916Z,5.46
2023-11-24T07:43:35.102Z,5.52
2023-11-24T07:46:03.018Z,5.47
2023-11-24T07:48:29.737Z,5.58
2023-11-24T07:50:56.694Z,5.53
2023-11-24T07:53:23.375Z,5.63
2023-11-24T07:55:50.446Z,5.58
2023-11-24T07:58:17.482Z,5.67
2023-11-24T08:00:45.516Z,5.60
2023-11-24T08:03:14.006Z,5.71
2023-11-24T08:05:41.250Z,5.69
2023-11-24T08:08:07.948Z,5.80
2023-11-24T08:10:34.687Z,5.78
2023-11-24T08:13:01.414Z,5.89
2023-11-24T08:15:28.213Z,6.02
2023-11-24T08:17:54.922Z,6.40
2023-11-24T08:20:22.152Z,6.22
2023-11-24T08:22:49.058Z,5.98
2023-11-24T08:25:17.039Z,5.89
2023-11-24T08:27:45.663Z,5.93
2023-11-24T08:30:12.730Z,5.95
2023-11-24T08:32:43.547Z,5.99
2023-11-24T08:35:12.269Z,6.11
2023-11-24T08:37:39.082Z,6.06
2023-11-24T08:40:06.615Z,5.90
2023-11-24T08:42:34.783Z,5.85
2023-11-24T08:45:01.692Z,5.69
2023-11-24T08:47:29.021Z,5.66
2023-11-24T08:49:58.517Z,5.71
2023-11-24T08:52:27.259Z,5.71
2023-11-24T08:54:54.208Z,5.61
2023-11-24T08:57:21.009Z,5.47
2023-11-24T08:59:47.706Z,5.37
2023-11-24T09:02:14.538Z,5.35
2023-11-24T09:04:41.470Z,5.34
2023-11-24T09:07:10.185Z,5.44
2023-11-24T09:09:37.851Z,5.58
2023-11-24T09:12:06.799Z,5.43
2023-11-24T09:14:39.517Z,5.53
2023-11-24T09:17:06.363Z,5.60
2023-11-24T09:19:33.789Z,5.59
2023-11-24T09:22:01.962Z,5.57
2023-11-24T09:24:28.766Z,5.57
2023-11-24T09:26:56.299Z,5.64
2023-11-24T09:29:23.206Z,5.84
2023-11-24T09:31:49.974Z,5.80
2023-11-24T09:34:17.875Z,5.64
2023-11-24T09:36:46.671Z,5.56
2023-11-24T09:39:19.284Z,5.44
2023-11-24T09:41:55.655Z,5.46
2023-11-24T09:44:22.606Z,5.70
2023-11-24T09:46:52.728Z,5.58
2023-11-24T09:49:21.558Z,5.51
2023-11-24T09:51:48.342Z,5.56
2023-11-24T09:54:15.312Z,5.67
2023-11-24T09:56:44.343Z,5.69
2023-11-24T09:59:11.212Z,5.59
2023-11-24T10:01:38.492Z,5.56
2023-11-24T10:04:11.137Z,5.51
2023-11-24T10:06:43.443Z,5.63
2023-11-24T10:09:16.092Z,5.69
2023-11-24T10:11:42.828Z,5.27
2023-11-24T10:14:13.200Z,5.44
2023-11-24T10:16:43.069Z,5.58
2023-11-24T10:19:19.360Z,6.15
2023-11-24T10:21:49.346Z,7.14
2023-11-24T10:24:16.177Z,9.45
2023-11-24T10:26:45.373Z,8.22
2023-11-24T10:29:12.495Z,8.33
2023-11-24T10:31:39.980Z,7.54
2023-11-24T10:34:07.438Z,7.30
2023-11-24T10:36:36.765Z,7.18
2023-11-24T10:39:10.147Z,6.68
2023-11-24T10:41:47.220Z,6.63
2023-11-24T10:44:18.471Z,6.45
2023-11-24T10:46:49.344Z,6.15
2023-11-24T10:49:41.910Z,5.88
2023-11-24T10:52:20.608Z,5.99
2023-11-24T10:54:57.454Z,5.55
2023-11-24T10:57:26.877Z,5.79
2023-11-24T10:59:55.938Z,5.42
2023-11-24T11:02:22.799Z,5.76
2023-11-24T11:05:02.423Z,5.38
2023-11-24T11:07:36.995Z,5.69
2023-11-24T11:10:13.769Z,5.74
2023-11-24T11:12:52.920Z,5.49
2023-11-24T11:15:29.403Z,5.67
2023-11-24T11:18:15.676Z,5.48
2023-11-24T11:20:45.366Z,5.59
2023-11-24T11:23:18.284Z,5.66
2023-11-24T11:25:52.130Z,5.83
2023-11-24T11:28:19.458Z,5.64
2023-11-24T11:30:50.060Z,5.74
2023-11-24T11:33:21.093Z,5.65
2023-11-24T11:35:53.509Z,5.59
2023-11-24T11:38:51.349Z,5.52
2023-11-24T11:41:48.279Z,5.24
2023-11-24T11:44:27.482Z,5.43
2023-11-24T11:47:16.398Z,5.10
2023-11-24T11:49:44.080Z,5.07
2023-11-24T11:52:14.817Z,5.01
2023-11-24T11:54:41.933Z,5.19
2023-11-24T11:57:08.972Z,5.20
2023-11-24T11:59:35.943Z,5.08
2023-11-24T12:02:03.188Z,5.19
2023-11-24T12:04:30.381Z,5.27
2023-11-24T12:06:57.258Z,5.24
2023-11-24T12:09:25.545Z,5.34
2023-11-24T12:11:52.516Z,5.05
2023-11-24T12:14:19.221Z,4.89
2023-11-24T12:16:46.027Z,4.55
2023-11-24T12:19:12.854Z,4.78
2023-11-24T12:21:43.194Z,4.65
2023-11-24T12:24:15.378Z,4.32
2023-11-24T12:26:46.141Z,4.66
2023-11-24T12:29:14.741Z,4.85
2023-11-24T12:31:43.617Z,4.76
2023-11-24T12:34:21.505Z,4.74
2023-11-24T12:36:56.024Z,4.05
2023-11-24T12:39:31.800Z,4.49
2023-11-24T12:41:59.196Z,4.14
2023-11-24T12:44:35.292Z,4.46
2023-11-24T12:47:15.632Z,4.83
2023-11-24T12:50:01.256Z,4.53
2023-11-24T12:52:36.379Z,5.07
2023-11-24T12:55:08.735Z,4.87
2023-11-24T12:57:36.639Z,4.87
2023-11-24T13:00:11.125Z,4.95
2023-11-24T13:02:39.371Z,5.23
2023-11-24T13:05:08.973Z,4.83
2023-11-24T13:07:41.930Z,4.83
2023-11-24T13:10:12.011Z,4.15
2023-11-24T13:12:40.446Z,4.78
2023-11-24T13:15:08.578Z,4.38
2023-11-24T13:17:35.517Z,5.04
2023-11-24T13:20:02.710Z,5.42
2023-11-24T13:22:29.426Z,5.28
2023-11-24T13:24:56.188Z,4.79
2023-11-24T13:27:23.548Z,4.63
2023-11-24T13:29:50.289Z,4.99
2023-11-24T13:32:17.040Z,4.84
2023-11-24T13:34:43.815Z,4.62
2023-11-24T13:37:12.422Z,4.28
2023-11-24T13:39:39.256Z,4.76
2023-11-24T13:42:06.280Z,4.68
2023-11-24T13:44:33.202Z,4.91
2023-11-24T13:47:00.084Z,4.87
2023-11-24T13:49:26.937Z,4.89
2023-11-24T13:51:54.385Z,4.56
2023-11-24T13:54:24.455Z,4.56
2023-11-24T13:56:53.540Z,4.80
2023-11-24T13:59:23.866Z,4.56
2023-11-24T14:01:50.879Z,4.44
2023-11-24T14:04:18.045Z,4.37
2023-11-24T14:06:46.986Z,4.49
2023-11-24T14:09:20.486Z,4.27
2023-11-24T14:11:48.483Z,3.68
2023-11-24T14:14:15.453Z,4.11
2023-11-24T14:16:42.953Z,4.12
2023-11-24T14:19:12.694Z,4.04
2023-11-24T14:21:40.506Z,4.13
2023-11-24T14:24:08.082Z,3.94
2023-11-24T14:26:35.544Z,3.89
2023-11-24T14:29:07.014Z,3.75
2023-11-24T14:31:34.267Z,3.44
2023-11-24T14:34:01.794Z,3.40
2023-11-24T14:36:29.635Z,3.50
2023-11-24T14:38:57.710Z,3.74
2023-11-24T14:41:24.969Z,3.67
2023-11-24T14:43:51.720Z,3.79
2023-11-24T14:46:22.162Z,3.86
2023-11-24T14:48:50.610Z,3.76
2023-11-24T14:51:22.177Z,3.23
2023-11-24T14:53:50.926Z,3.66
2023-11-24T14:56:17.831Z,3.34
2023-11-24T14:58:44.637Z,3.56
2023-11-24T15:01:11.783Z,3.17
2023-11-24T15:03:40.785Z,3.45
2023-11-24T15:06:10.900Z,3.55
2023-11-24T15:08:47.510Z,3.43
2023-11-24T15:11:16.608Z,3.18
2023-11-24T15:13:44.186Z,3.06
2023-11-24T15:16:20.347Z,3.30
2023-11-24T15:18:50.228Z,2.89
2023-11-24T15:21:36.759Z,2.90
2023-11-24T15:24:05.372Z,3.15
2023-11-24T15:26:34.467Z,3.25
2023-11-24T15:29:01.576Z,3.34
2023-11-24T15:31:28.518Z,3.34
2023-11-24T15:33:55.571Z,3.42
2023-11-24T15:36:29.153Z,3.22
2023-11-24T15:38:57.679Z,2.88
2023-11-24T15:41:29.940Z,3.06
2023-11-24T15:43:56.986Z,2.84
2023-11-24T15:46:31.728Z,2.63
2023-11-24T15:49:00.419Z,2.74
2023-11-24T15:51:27.566Z,2.66
2023-11-24T15:53:54.569Z,2.69
2023-11-24T15:56:25.601Z,2.71
2023-11-24T15:58:56.308Z,2.69
2023-11-24T16:01:23.937Z,2.88
2023-11-24T16:03:51.231Z,2.56
2023-11-24T16:06:26.037Z,2.62
2023-11-24T16:08:56.087Z,2.79
2023-11-24T16:11:29.834Z,2.56
2023-11-24T16:13:59.821Z,2.54
2023-11-24T16:16:29.701Z,2.82
2023-11-24T16:18:57.042Z,2.75
2023-11-24T16:21:23.804Z,2.96
2023-11-24T16:23:50.557Z,3.08
2023-11-24T16:26:17.363Z,3.15
2023-11-24T16:28:44.832Z,2.71
2023-11-24T16:31:13.416Z,2.79
2023-11-24T16:33:42.049Z,2.73
2023-11-24T16:36:10.895Z,2.74
2023-11-24T16:38:40.213Z,2.92
2023-11-24T16:41:07.108Z,2.79
2023-11-24T16:43:33.847Z,2.85
2023-11-24T16:46:00.932Z,2.90
2023-11-24T16:48:27.728Z,2.77
2023-11-24T16:50:54.449Z,3.07
2023-11-24T16:53:21.184Z,2.93
2023-11-24T16:55:48.472Z,2.89
2023-11-24T16:58:15.321Z,2.75
2023-11-24T17:00:42.793Z,2.86
2023-11-24T17:03:11.822Z,2.68
2023-11-24T17:05:39.488Z,2.88
2023-11-24T17:08:07.961Z,2.99
2023-11-24T17:10:35.451Z,2.84
2023-11-24T17:13:03.174Z,2.87
2023-11-24T17:15:30.102Z,2.87
2023-11-24T17:17:58.273Z,2.13
2023-11-24T17:20:27.154Z,1.71
2023-11-24T17:22:54.457Z,1.52
2023-11-24T17:25:32.094Z,1.35
2023-11-24T17:28:03.802Z,1.41
2023-11-24T17:30:30.508Z,1.65
2023-11-24T17:32:57.446Z,1.47
2023-11-24T17:35:24.877Z,1.31
2023-11-24T17:37:52.294Z,1.33
2023-11-24T17:40:22.862Z,0.71
2023-11-24T17:42:50.368Z,0.68
2023-11-24T17:45:17.469Z,0.90
2023-11-24T17:47:46.722Z,0.74
2023-11-24T17:50:16.291Z,0.75
2023-11-24T17:52:43.708Z,0.69
2023-11-24T17:55:10.821Z,0.69
2023-11-24T17:57:37.784Z,0.84
2023-11-24T18:00:09.118Z,0.48
2023-11-24T18:02:35.873Z,0.43
2023-11-24T18:05:02.665Z,0.45
2023-11-24T18:07:29.522Z,0.36
2023-11-24T18:09:56.220Z,0.26
2023-11-24T18:12:22.998Z,0.41
2023-11-24T18:14:49.675Z,0.45
2023-11-24T18:17:16.475Z,0.53
2023-11-24T18:19:43.825Z,0.34
2023-11-24T18:22:10.774Z,0.19
2023-11-24T18:24:38.031Z,0.36
2023-11-24T18:27:05.134Z,0.17
2023-11-24T18:29:31.804Z,0.36
2023-11-24T18:31:58.672Z,0.22
2023-11-24T18:34:29.072Z,0.23
2023-11-24T18:36:58.758Z,0.18
2023-11-24T18:39:28.597Z,0.16
2023-11-24T18:41:55.401Z,0.06
2023-11-24T18:44:22.145Z,0.11
2023-11-24T18:46:51.832Z,0.05
2023-11-24T18:49:18.538Z,0.14
2023-11-24T18:51:45.307Z,0.11
2023-11-24T18:54:12.383Z,0.13
2023-11-24T18:56:39.311Z,0.12
2023-11-24T18:59:06.760Z,0.20
2023-11-24T19:01:34.361Z,0.08
2023-11-24T19:04:02.096Z,0.19
2023-11-24T19:06:29.703Z,0.29
2023-11-24T19:08:56.799Z,0.35
2023-11-24T19:11:24.330Z,0.31
2023-11-24T19:13:51.368Z,0.34
2023-11-24T19:16:18.255Z,0.37
2023-11-24T19:18:44.994Z,0.45
2023-11-24T19:21:12.632Z,0.63
2023-11-24T19:23:40.471Z,0.34
2023-11-24T19:26:13.059Z,0.48
2023-11-24T19:28:41.824Z,0.13
2023-11-24T19:31:08.763Z,0.26
2023-11-24T19:33:35.784Z,0.35
2023-11-24T19:36:02.653Z,0.41
2023-11-24T19:38:29.494Z,0.33
2023-11-24T19:40:58.446Z,0.05
2023-11-24T19:43:25.229Z,0.07
2023-11-24T19:45:51.986Z,0.17
2023-11-24T19:48:18.736Z,0.06
2023-11-24T19:50:45.366Z,0.04
2023-11-24T19:53:13.349Z,0.10
2023-11-24T19:55:40.092Z,0.35
2023-11-24T19:58:06.810Z,0.16
2023-11-24T20:00:33.529Z,0.17
2023-11-24T20:03:00.318Z,0.13
2023-11-24T20:05:30.649Z,0.36
2023-11-24T20:07:57.612Z,0.35
2023-11-24T20:10:26.339Z,0.26
2023-11-24T20:12:56.943Z,0.15
2023-11-24T20:15:25.313Z,0.21
2023-11-24T20:17:52.073Z,0.14
2023-11-24T20:20:18.895Z,0.17
2023-11-24T20:22:45.697Z,0.41
2023-11-24T20:25:12.451Z,0.37
2023-11-24T20:27:39.158Z,0.51
2023-11-24T20:30:06.627Z,0.53
2023-11-24T20:32:33.503Z,0.46
2023-11-24T20:35:00.485Z,0.47
2023-11-24T20:37:27.275Z,0.41
2023-11-24T20:39:57.010Z,0.47
2023-11-24T20:42:23.924Z,0.25
2023-11-24T20:44:50.661Z,0.39
2023-11-24T20:47:17.580Z,0.34
2023-11-24T20:49:45.540Z,0.23
2023-11-24T20:52:12.270Z,0.06
2023-11-24T20:54:39.791Z,0.29
2023-11-24T20:57:06.481Z,0.23
2023-11-24T20:59:35.291Z,0.39
2023-11-24T21:02:02.179Z,0.42
2023-11-24T21:04:28.981Z,0.47
2023-11-24T21:06:56.079Z,0.34
2023-11-24T21:09:24.116Z,0.17
2023-11-24T21:11:50.842Z,0.40
2023-11-24T21:14:17.621Z,0.57
2023-11-24T21:16:44.831Z,0.52
2023-11-24T21:19:12.807Z,0.48
2023-11-24T21:21:39.980Z,0.32
2023-11-24T21:24:08.286Z,0.29
2023-11-24T21:26:35.442Z,0.71
2023-11-24T21:29:03.866Z,0.42
2023-11-24T21:31:30.708Z,0.11
2023-11-24T21:33:57.644Z,0.20
2023-11-24T21:36:24.421Z,0.43
2023-11-24T21:38:51.163Z,0.37
2023-11-24T21:41:20.670Z,0.41
2023-11-24T21:43:48.953Z,0.30
2023-11-24T21:46:22.503Z,0.47
2023-11-24T21:48:50.480Z,0.51
2023-11-24T21:51:19.852Z,0.32
2023-11-24T21:53:46.687Z,0.16
2023-11-24T21:56:13.448Z,0.28
2023-11-24T21:58:40.743Z,0.18
2023-11-24T22:01:07.612Z,0.37
2023-11-24T22:03:34.503Z,0.31
2023-11-24T22:06:01.482Z,0.17
2023-11-24T22:08:28.228Z,0.13
2023-11-24T22:10:54.997Z,0.33
2023-11-24T22:13:21.898Z,0.42
2023-11-24T22:15:48.923Z,0.12
2023-11-24T22:18:15.942Z,0.27
2023-11-24T22:20:42.672Z,-0.03
2023-11-24T22:23:09.833Z,0.21
2023-11-24T22:25:36.774Z,0.30
2023-11-24T22:28:03.918Z,-0.06
2023-11-24T22:30:30.676Z,-0.07
2023-11-24T22:32:57.463Z,-0.24
2023-11-24T22:35:24.276Z,-0.10
2023-11-24T22:37:50.939Z,-0.36
2023-11-24T22:40:17.785Z,-0.07
2023-11-24T22:42:44.549Z,-0.21
2023-11-24T22:45:11.366Z,0.10
2023-11-24T22:47:39.662Z,0.07
2023-11-24T22:50:07.024Z,0.06
2023-11-24T22:52:34.329Z,0.07
2023-11-24T22:55:02.375Z,0.12
2023-11-24T22:57:29.273Z,-0.17
2023-11-24T22:59:56.880Z,-0.19
2023-11-24T23:02:24.266Z,0.04
2023-11-24T23:04:51.448Z,-0.11
2023-11-24T23:07:19.436Z,-0.38
2023-11-24T23:09:46.550Z,-0.12
2023-11-24T23:12:13.624Z,-0.17
2023-11-24T23:14:40.504Z,-0.01
2023-11-24T23:17:08.963Z,0.04
2023-11-24T23:19:36.214Z,-0.23
2023-11-24T23:22:07.542Z,-0.15
2023-11-24T23:24:34.857Z,-0.04
2023-11-24T23:27:04.084Z,0.05
2023-11-24T23:29:30.878Z,-0.01
2023-11-24T23:31:57.766Z,-0.13
2023-11-24T23:34:24.615Z,-0.28
2023-11-24T23:36:51.355Z,-0.29
2023-11-24T23:39:19.877Z,-0.11
2023-11-24T23:41:46.715Z,0.15
2023-11-24T23:44:15.563Z,-0.01
2023-11-24T23:46:42.979Z,0.01
2023-11-24T23:49:09.957Z,-0.37
2023-11-24T23:51:36.668Z,-0.15
2023-11-24T23:54:04.185Z,0.00
2023-11-24T23:56:30.961Z,-0.06
2023-11-24T23:58:57.664Z,0.02
